Time;durP1;ratioP1;P1;durP2;ratioP2;P2;SDS_P1;SDS_P2;PMS_P1;PMS_P2;Temp;Humidity;BMP_temperature;BMP_pressure;BME280_temperature;BME280_humidity;BME280_pressure;Samples;Min_cycle;Max_cycle;Signal;HPM_P1;HPM_P2
2021/01/19 00:01:11;;;;;;;94.38;31.75;;;-10.00;99.90;;;;;;4175862;28;20490;-67
2021/01/19 00:03:12;;;;;;;80.85;29.90;;;-10.10;99.90;;;;;;4175083;28;20025;-67
2021/01/19 00:05:13;;;;;;;85.70;31.08;;;-10.10;99.90;;;;;;4175322;28;20037;-67
2021/01/19 00:07:15;;;;;;;80.65;29.08;;;-10.10;99.90;;;;;;4174782;28;20427;-67
2021/01/19 00:09:16;;;;;;;86.25;30.20;;;-10.20;99.90;;;;;;4174752;28;20033;-67
2021/01/19 00:11:17;;;;;;;91.38;31.58;;;-10.20;99.90;;;;;;4174738;28;20029;-66
2021/01/19 00:13:21;;;;;;;76.70;28.42;;;-10.30;99.90;;;;;;4174567;28;20029;-67
2021/01/19 00:15:22;;;;;;;89.00;31.80;;;-10.30;99.90;;;;;;4175080;28;20037;-67
2021/01/19 00:17:23;;;;;;;98.63;32.22;;;-10.30;99.90;;;;;;4174138;28;20374;-67
2021/01/19 00:19:24;;;;;;;86.32;32.28;;;-10.30;99.90;;;;;;4174925;28;20032;-65
2021/01/19 00:21:26;;;;;;;92.00;35.03;;;-10.40;99.90;;;;;;4174128;28;20131;-64
2021/01/19 00:23:27;;;;;;;109.55;35.78;;;-10.40;99.90;;;;;;4175324;28;20064;-66
2021/01/19 00:25:28;;;;;;;97.30;34.40;;;-10.40;99.90;;;;;;4174762;28;20082;-66
2021/01/19 00:27:29;;;;;;;95.18;32.97;;;-10.50;99.90;;;;;;4175212;28;20079;-66
2021/01/19 00:29:30;;;;;;;91.22;32.65;;;-10.40;99.90;;;;;;4174275;28;20045;-65
2021/01/19 00:31:31;;;;;;;88.07;30.58;;;-10.40;99.90;;;;;;4174509;28;20048;-66
2021/01/19 00:33:33;;;;;;;89.38;32.47;;;-10.50;99.90;;;;;;4174837;28;20032;-66
2021/01/19 00:35:34;;;;;;;98.57;32.13;;;-10.50;99.90;;;;;;4174482;28;20032;-65
2021/01/19 00:37:37;;;;;;;96.60;37.38;;;-10.50;99.90;;;;;;4174499;28;20878;-64
2021/01/19 00:39:38;;;;;;;99.38;34.40;;;-10.50;99.90;;;;;;4174780;28;20099;-66
2021/01/19 00:41:39;;;;;;;100.47;33.35;;;-10.60;99.90;;;;;;4174116;28;20722;-65
2021/01/19 00:43:41;;;;;;;84.40;29.92;;;-10.60;99.90;;;;;;4174067;28;20089;-66
2021/01/19 00:45:42;;;;;;;87.03;30.35;;;-10.60;99.90;;;;;;4174711;28;20029;-65
2021/01/19 00:47:43;;;;;;;86.25;30.10;;;-10.60;99.90;;;;;;4178396;28;20090;-66
2021/01/19 00:49:44;;;;;;;90.50;31.60;;;-10.60;99.90;;;;;;4191308;28;20045;-66
2021/01/19 00:51:46;;;;;;;90.30;32.42;;;-10.70;99.90;;;;;;4190264;28;20037;-65
2021/01/19 00:53:47;;;;;;;96.15;33.15;;;-10.80;99.90;;;;;;4191311;28;20028;-67
2021/01/19 00:55:48;;;;;;;95.28;35.60;;;-10.80;99.90;;;;;;4190181;28;20480;-66
2021/01/19 00:57:49;;;;;;;78.63;30.92;;;-10.90;99.90;;;;;;4191119;28;20515;-66
2021/01/19 00:59:50;;;;;;;83.95;31.35;;;-10.90;99.90;;;;;;4189079;28;20067;-65
2021/01/19 01:01:51;;;;;;;79.30;29.13;;;-10.90;99.90;;;;;;4182338;28;20091;-63
2021/01/19 01:03:53;;;;;;;73.28;25.38;;;-10.90;99.90;;;;;;4174083;28;20028;-65
2021/01/19 01:05:56;;;;;;;76.85;25.88;;;-11.00;99.90;;;;;;4174567;28;20033;-66
2021/01/19 01:07:59;;;;;;;70.35;27.15;;;-11.00;99.90;;;;;;4176196;28;20037;-66
2021/01/19 01:10:02;;;;;;;81.85;28.83;;;-11.00;99.90;;;;;;4186133;28;20093;-65
2021/01/19 01:12:06;;;;;;;75.32;28.67;;;-11.00;99.90;;;;;;4174713;28;20045;-65
2021/01/19 01:14:08;;;;;;;70.93;26.90;;;-11.00;99.90;;;;;;4173692;28;20548;-65
2021/01/19 01:16:11;;;;;;;77.30;26.92;;;-11.00;99.90;;;;;;4176524;28;20029;-64
2021/01/19 01:18:13;;;;;;;83.00;28.13;;;-11.00;99.90;;;;;;4189926;28;20090;-66
2021/01/19 01:20:15;;;;;;;78.65;26.73;;;-11.00;99.90;;;;;;4190488;28;20028;-66
2021/01/19 01:22:16;;;;;;;85.75;29.80;;;-11.00;99.90;;;;;;4189146;28;20041;-64
2021/01/19 01:24:18;;;;;;;79.30;28.23;;;-11.00;99.90;;;;;;4190741;28;20752;-64
2021/01/19 01:26:20;;;;;;;78.80;29.73;;;-11.10;99.90;;;;;;4189206;28;20029;-63
2021/01/19 01:28:21;;;;;;;77.75;27.38;;;-11.10;99.90;;;;;;4190490;28;20090;-63
2021/01/19 01:30:23;;;;;;;79.95;28.88;;;-11.10;99.90;;;;;;4189773;28;20440;-64
2021/01/19 01:32:24;;;;;;;80.10;28.92;;;-11.20;99.90;;;;;;4190136;28;20037;-64
2021/01/19 01:34:25;;;;;;;81.82;27.50;;;-11.20;99.90;;;;;;4189932;28;20102;-64
2021/01/19 01:36:26;;;;;;;78.22;28.80;;;-11.30;99.90;;;;;;4190347;28;20098;-64
2021/01/19 01:38:28;;;;;;;78.75;27.75;;;-11.30;99.90;;;;;;4188088;28;20036;-64
2021/01/19 01:40:29;;;;;;;77.68;28.50;;;-11.30;99.90;;;;;;4190010;28;20036;-67
2021/01/19 01:42:30;;;;;;;79.68;26.40;;;-11.30;99.90;;;;;;4188294;28;20040;-65
2021/01/19 01:44:31;;;;;;;81.10;27.63;;;-11.30;99.90;;;;;;4190483;28;20097;-66
2021/01/19 01:46:37;;;;;;;74.53;27.63;;;-11.20;99.90;;;;;;4187992;28;20074;-67
2021/01/19 01:48:43;;;;;;;74.50;27.42;;;-11.20;99.90;;;;;;4189619;28;20032;-64
2021/01/19 01:50:44;;;;;;;76.20;28.80;;;-11.20;99.90;;;;;;4189495;28;20094;-66
2021/01/19 01:52:46;;;;;;;83.75;30.00;;;-11.10;99.90;;;;;;4187544;28;20029;-64
2021/01/19 01:54:53;;;;;;;73.22;28.35;;;-11.10;99.90;;;;;;4189639;28;20032;-66
2021/01/19 01:56:54;;;;;;;77.03;28.05;;;-11.10;99.90;;;;;;4188953;28;20094;-65
2021/01/19 01:58:56;;;;;;;73.43;27.90;;;-11.10;99.90;;;;;;4190257;28;20086;-65
2021/01/19 02:00:57;;;;;;;77.10;29.38;;;-11.10;99.90;;;;;;4189392;28;20021;-65
2021/01/19 02:02:59;;;;;;;80.35;30.23;;;-11.00;99.90;;;;;;4190081;28;20102;-65
2021/01/19 02:05:00;;;;;;;81.78;28.65;;;-11.00;99.90;;;;;;4189987;28;20028;-66
2021/01/19 02:07:17;;;;;;;79.28;28.10;;;-11.00;99.90;;;;;;4188346;28;20086;-65
2021/01/19 02:09:25;;;;;;;73.15;26.90;;;-10.90;99.90;;;;;;4189109;28;20021;-65
2021/01/19 02:12:00;;;;;;;69.82;25.63;;;-10.90;99.90;;;;;;4189723;28;20020;-65
2021/01/19 02:14:29;;;;;;;64.50;24.95;;;-10.90;99.90;;;;;;4187210;28;20063;-65
2021/01/19 02:16:58;;;;;;;71.68;25.17;;;-10.80;99.90;;;;;;4189588;28;20068;-65
2021/01/19 02:19:21;;;;;;;73.90;23.42;;;-10.80;99.90;;;;;;4151333;28;20055;-66
2021/01/19 02:21:43;;;;;;;68.90;24.70;;;-10.80;99.90;;;;;;4188955;28;20033;-66
2021/01/19 02:24:04;;;;;;;63.38;23.10;;;-10.80;99.90;;;;;;4189170;28;20028;-66
2021/01/19 02:26:11;;;;;;;73.50;23.95;;;-10.80;99.90;;;;;;4187039;28;20118;-66
2021/01/19 02:28:49;;;;;;;69.60;25.40;;;-10.80;99.90;;;;;;4187316;28;20137;-66
2021/01/19 02:31:11;;;;;;;78.20;27.55;;;-10.80;99.90;;;;;;4185249;28;20051;-65
2021/01/19 02:33:50;;;;;;;71.35;25.75;;;-10.80;99.90;;;;;;4189570;28;20565;-66
2021/01/19 02:36:25;;;;;;;66.88;24.95;;;-10.80;99.90;;;;;;4188562;28;20121;-65
2021/01/19 02:38:52;;;;;;;75.60;27.23;;;-10.80;99.90;;;;;;4189042;28;20059;-66
2021/01/19 02:40:56;;;;;;;75.53;24.40;;;-10.80;99.90;;;;;;4189094;28;20066;-66
2021/01/19 02:43:25;;;;;;;77.68;27.20;;;-10.80;99.90;;;;;;4189590;28;20362;-65
2021/01/19 02:45:27;;;;;;;77.53;26.73;;;-10.80;99.90;;;;;;4186545;28;20040;-67
2021/01/19 02:47:28;;;;;;;66.40;23.63;;;-10.90;99.90;;;;;;4188715;28;20021;-67
2021/01/19 02:49:29;;;;;;;66.53;24.30;;;-10.90;99.90;;;;;;4188790;28;20033;-66
2021/01/19 02:51:30;;;;;;;64.68;25.30;;;-10.90;99.90;;;;;;4187017;28;20094;-67
2021/01/19 02:53:32;;;;;;;72.88;25.08;;;-10.90;99.90;;;;;;4188680;28;20480;-66
2021/01/19 02:55:34;;;;;;;70.57;25.67;;;-10.80;99.90;;;;;;4189316;28;20033;-66
2021/01/19 02:57:58;;;;;;;77.78;26.48;;;-10.80;99.90;;;;;;4186484;28;20592;-67
2021/01/19 03:00:08;;;;;;;70.50;26.30;;;-10.80;99.90;;;;;;4188661;28;20070;-66
2021/01/19 03:02:22;;;;;;;70.18;26.33;;;-10.80;99.90;;;;;;4188671;28;20459;-66
2021/01/19 03:04:25;;;;;;;70.03;26.65;;;-10.80;99.90;;;;;;4188909;28;20024;-68
2021/01/19 03:06:31;;;;;;;73.60;25.25;;;-10.80;99.90;;;;;;4188654;28;20024;-65
2021/01/19 03:08:34;;;;;;;70.70;24.58;;;-10.80;99.90;;;;;;4188894;28;20086;-65
2021/01/19 03:10:39;;;;;;;64.60;26.90;;;-10.80;99.90;;;;;;4188091;28;20041;-66
2021/01/19 03:12:44;;;;;;;76.57;25.70;;;-10.70;99.90;;;;;;4189094;28;20482;-67
2021/01/19 03:14:45;;;;;;;76.50;25.92;;;-10.70;99.90;;;;;;4188477;28;20094;-68
2021/01/19 03:16:48;;;;;;;79.65;26.88;;;-10.70;99.90;;;;;;4188783;28;20370;-66
2021/01/19 03:18:51;;;;;;;71.07;26.55;;;-10.70;99.90;;;;;;4172000;28;20142;-66
2021/01/19 03:20:52;;;;;;;65.45;25.65;;;-10.70;99.90;;;;;;4172159;28;20110;-66
2021/01/19 03:22:53;;;;;;;73.47;26.35;;;-10.60;99.90;;;;;;4176222;28;20036;-67
2021/01/19 03:24:55;;;;;;;70.07;25.08;;;-10.60;99.90;;;;;;4176406;28;20067;-67
2021/01/19 03:26:56;;;;;;;74.93;27.83;;;-10.60;99.90;;;;;;4177001;28;20041;-68
2021/01/19 03:28:57;;;;;;;77.30;29.95;;;-10.60;99.90;;;;;;4177567;28;20087;-68
2021/01/19 03:30:58;;;;;;;72.72;27.23;;;-10.60;99.90;;;;;;4176781;28;20049;-67
2021/01/19 03:33:00;;;;;;;71.50;27.05;;;-10.60;99.90;;;;;;4177667;28;20067;-67
2021/01/19 03:35:02;;;;;;;67.68;25.35;;;-10.50;99.90;;;;;;4177570;28;20060;-68
2021/01/19 03:37:03;;;;;;;67.78;25.00;;;-10.50;99.90;;;;;;4177008;28;20103;-68
2021/01/19 03:39:05;;;;;;;73.75;24.55;;;-10.50;99.90;;;;;;4177610;28;20037;-67
2021/01/19 03:41:06;;;;;;;66.22;24.48;;;-10.50;99.90;;;;;;4176736;28;20037;-68
2021/01/19 03:43:08;;;;;;;73.18;25.38;;;-10.60;99.90;;;;;;4177443;28;20029;-66
2021/01/19 03:45:09;;;;;;;63.83;24.75;;;-10.60;99.90;;;;;;4175367;28;20451;-67
2021/01/19 03:47:11;;;;;;;68.18;24.15;;;-10.50;99.90;;;;;;4177404;28;20037;-67
2021/01/19 03:49:12;;;;;;;61.80;22.63;;;-10.60;99.90;;;;;;4176700;28;20053;-65
2021/01/19 03:51:14;;;;;;;63.03;23.90;;;-10.50;99.90;;;;;;4176082;28;20110;-68
2021/01/19 03:53:16;;;;;;;70.00;24.52;;;-10.50;99.90;;;;;;4176948;28;20029;-67
2021/01/19 03:55:18;;;;;;;61.47;23.77;;;-10.40;99.90;;;;;;4177958;28;20024;-66
2021/01/19 03:57:19;;;;;;;60.67;23.15;;;-10.40;99.90;;;;;;4176694;28;20535;-68
2021/01/19 03:59:21;;;;;;;70.75;23.80;;;-10.30;99.90;;;;;;4177751;28;20386;-67
2021/01/19 04:01:23;;;;;;;68.78;23.85;;;-10.40;99.90;;;;;;4187700;28;20508;-67
2021/01/19 04:03:24;;;;;;;64.70;23.52;;;-10.40;99.90;;;;;;4191798;28;20458;-66
2021/01/19 04:05:25;;;;;;;60.67;23.50;;;-10.40;99.90;;;;;;4194024;28;20476;-66
2021/01/19 04:07:27;;;;;;;66.30;23.95;;;-10.40;99.90;;;;;;4193433;28;20025;-66
2021/01/19 04:09:28;;;;;;;62.40;24.30;;;-10.40;99.90;;;;;;4193158;28;20036;-67
2021/01/19 04:11:29;;;;;;;60.97;22.75;;;-10.50;99.90;;;;;;4193289;28;20048;-67
2021/01/19 04:13:30;;;;;;;63.78;22.85;;;-10.50;99.90;;;;;;4194333;28;20033;-67
2021/01/19 04:15:31;;;;;;;63.92;24.42;;;-10.40;99.90;;;;;;4193264;28;20422;-65
2021/01/19 04:17:33;;;;;;;57.33;21.33;;;-10.30;99.90;;;;;;4194479;28;20040;-68
2021/01/19 04:19:34;;;;;;;64.10;22.42;;;-10.30;99.90;;;;;;4192794;28;20077;-65
2021/01/19 04:21:35;;;;;;;53.15;21.75;;;-10.20;99.90;;;;;;4194241;28;20065;-65
2021/01/19 04:23:37;;;;;;;51.08;21.00;;;-10.20;99.90;;;;;;4193004;28;20471;-66
2021/01/19 04:25:38;;;;;;;64.75;23.15;;;-10.20;99.90;;;;;;4194338;28;20097;-65
2021/01/19 04:27:39;;;;;;;55.47;22.27;;;-10.20;99.90;;;;;;4192988;28;20377;-66
2021/01/19 04:29:42;;;;;;;60.22;21.15;;;-10.10;99.90;;;;;;4191265;28;20046;-63
2021/01/19 04:31:43;;;;;;;56.40;22.13;;;-10.10;99.90;;;;;;4175929;28;20108;-66
2021/01/19 04:33:44;;;;;;;60.05;22.55;;;-10.10;99.90;;;;;;4174270;28;20036;-68
2021/01/19 04:35:45;;;;;;;57.35;21.90;;;-10.10;99.90;;;;;;4174579;28;20485;-67
2021/01/19 04:37:47;;;;;;;56.35;20.85;;;-10.00;99.90;;;;;;4173071;28;20036;-66
2021/01/19 04:39:48;;;;;;;64.13;22.38;;;-10.00;99.90;;;;;;4174380;28;20041;-65
2021/01/19 04:41:49;;;;;;;62.85;23.25;;;-10.00;99.90;;;;;;4174244;28;20059;-65
2021/01/19 04:43:50;;;;;;;201.82;60.08;;;-10.00;99.90;;;;;;4174226;28;20102;-66
2021/01/19 04:45:53;;;;;;;110.78;35.05;;;-10.00;99.90;;;;;;4174343;28;20036;-67
2021/01/19 04:47:56;;;;;;;78.00;27.20;;;-10.00;99.90;;;;;;4174715;28;20769;-65
2021/01/19 04:49:59;;;;;;;69.30;22.65;;;-10.00;99.90;;;;;;4173869;28;20090;-67
2021/01/19 04:52:04;;;;;;;61.33;21.73;;;-9.90;99.90;;;;;;4174340;28;20033;-65
2021/01/19 04:54:07;;;;;;;57.70;21.95;;;-9.90;99.90;;;;;;4189332;28;20025;-64
2021/01/19 04:56:18;;;;;;;50.83;19.27;;;-9.90;99.90;;;;;;4174641;28;20549;-64
2021/01/19 04:58:22;;;;;;;67.53;24.90;;;-9.90;99.90;;;;;;4174719;28;20086;-66
2021/01/19 05:00:35;;;;;;;71.25;25.10;;;-9.90;99.90;;;;;;4185441;28;20028;-64
2021/01/19 05:02:54;;;;;;;63.03;23.77;;;-9.90;99.90;;;;;;4173472;28;20918;-65
2021/01/19 05:05:32;;;;;;;62.50;22.75;;;-9.80;99.90;;;;;;4174621;28;20029;-62
2021/01/19 05:07:34;;;;;;;65.65;24.92;;;-9.80;99.90;;;;;;4152498;28;20041;-62
2021/01/19 05:09:36;;;;;;;114.22;36.38;;;-9.80;99.90;;;;;;4173989;28;20033;-61
2021/01/19 05:11:50;;;;;;;82.20;29.13;;;-9.80;99.90;;;;;;4172810;28;20049;-62
2021/01/19 05:14:02;;;;;;;69.50;24.23;;;-9.80;99.90;;;;;;4175065;28;20029;-63
2021/01/19 05:16:04;;;;;;;55.40;21.05;;;-9.80;99.90;;;;;;4173327;28;20147;-64
2021/01/19 05:18:13;;;;;;;62.53;23.48;;;-9.80;99.90;;;;;;4174166;28;20440;-66
2021/01/19 05:20:14;;;;;;;67.18;22.23;;;-9.80;99.90;;;;;;4173111;28;20036;-63
2021/01/19 05:22:16;;;;;;;55.95;20.45;;;-9.70;99.90;;;;;;4174274;28;20473;-62
2021/01/19 05:24:17;;;;;;;64.75;23.10;;;-9.70;99.90;;;;;;4173065;28;20036;-63
2021/01/19 05:26:19;;;;;;;70.05;23.98;;;-9.80;99.90;;;;;;4174085;28;20120;-63
2021/01/19 05:28:34;;;;;;;68.57;24.27;;;-9.80;99.90;;;;;;4173488;28;20041;-65
2021/01/19 05:30:36;;;;;;;63.83;24.48;;;-9.70;99.90;;;;;;4171729;28;20049;-67
2021/01/19 05:32:41;;;;;;;68.72;22.73;;;-9.70;99.90;;;;;;4171203;28;20033;-63
2021/01/19 05:34:43;;;;;;;64.32;23.02;;;-9.70;99.90;;;;;;4173959;28;20463;-64
2021/01/19 05:36:49;;;;;;;77.90;27.77;;;-9.70;99.90;;;;;;4181096;28;20028;-68
2021/01/19 05:38:52;;;;;;;79.57;27.92;;;-9.60;99.90;;;;;;4190205;28;20036;-64
2021/01/19 05:40:54;;;;;;;74.82;27.35;;;-9.60;99.90;;;;;;4189325;28;20545;-66
2021/01/19 05:42:55;;;;;;;95.20;35.83;;;-9.60;99.90;;;;;;4189943;28;20497;-65
2021/01/19 05:45:05;;;;;;;105.72;35.42;;;-9.60;99.90;;;;;;4189275;28;20033;-66
2021/01/19 05:47:06;;;;;;;89.90;30.90;;;-9.60;99.90;;;;;;4187737;28;20426;-65
2021/01/19 05:49:12;;;;;;;72.97;26.15;;;-9.60;99.90;;;;;;4189559;28;20484;-66
2021/01/19 05:51:15;;;;;;;58.28;21.50;;;-9.50;99.90;;;;;;4189368;28;20086;-65
2021/01/19 05:53:17;;;;;;;49.95;19.52;;;-9.50;99.90;;;;;;4189841;28;20032;-65
2021/01/19 05:55:25;;;;;;;51.00;19.95;;;-9.50;99.90;;;;;;4189678;28;20036;-66
2021/01/19 05:57:27;;;;;;;70.63;24.42;;;-9.50;99.90;;;;;;4189886;28;20040;-66
2021/01/19 05:59:34;;;;;;;66.22;24.63;;;-9.40;99.90;;;;;;4189008;28;20024;-66
2021/01/19 06:01:35;;;;;;;66.70;23.92;;;-9.40;99.90;;;;;;4189479;28;20098;-65
2021/01/19 06:03:50;;;;;;;62.67;24.20;;;-9.30;99.90;;;;;;4189245;28;20029;-65
2021/01/19 06:05:51;;;;;;;63.10;23.33;;;-9.30;99.90;;;;;;4190236;28;20029;-65
2021/01/19 06:07:54;;;;;;;58.65;22.15;;;-9.30;99.90;;;;;;4188682;28;20028;-65
2021/01/19 06:09:56;;;;;;;52.75;20.30;;;-9.30;99.90;;;;;;4189848;28;20036;-65
2021/01/19 06:11:57;;;;;;;46.60;19.17;;;-9.30;99.90;;;;;;4188910;28;20036;-65
2021/01/19 06:13:59;;;;;;;53.33;20.25;;;-9.40;99.90;;;;;;4189705;28;20033;-65
2021/01/19 06:16:09;;;;;;;59.22;21.13;;;-9.40;99.90;;;;;;4188332;28;20029;-65
2021/01/19 06:18:11;;;;;;;55.28;20.50;;;-9.50;99.90;;;;;;4189619;28;20032;-65
2021/01/19 06:20:13;;;;;;;60.83;23.27;;;-9.40;99.90;;;;;;4188454;28;20125;-65
2021/01/19 06:22:19;;;;;;;64.13;22.02;;;-9.50;99.90;;;;;;4189045;28;20090;-65
2021/01/19 06:24:31;;;;;;;60.10;22.30;;;-9.50;99.90;;;;;;4188841;28;20028;-66
2021/01/19 06:26:41;;;;;;;66.03;22.60;;;-9.40;99.90;;;;;;4189190;28;20036;-66
2021/01/19 06:28:43;;;;;;;53.53;20.63;;;-9.40;99.90;;;;;;4188887;28;20098;-65
2021/01/19 06:30:44;;;;;;;62.42;23.73;;;-9.40;99.90;;;;;;4188611;28;20090;-65
2021/01/19 06:32:49;;;;;;;82.07;31.08;;;-9.30;99.90;;;;;;4188617;28;20297;-67
2021/01/19 06:34:51;;;;;;;61.40;23.02;;;-9.30;99.90;;;;;;4188762;28;20094;-65
2021/01/19 06:36:53;;;;;;;53.22;20.58;;;-9.30;99.90;;;;;;4187372;28;20048;-66
2021/01/19 06:38:55;;;;;;;56.28;20.77;;;-9.30;99.90;;;;;;4188885;28;20048;-65
2021/01/19 06:40:58;;;;;;;59.17;22.63;;;-9.30;99.90;;;;;;4188628;28;20102;-66
2021/01/19 06:43:04;;;;;;;53.90;21.80;;;-9.30;99.90;;;;;;4188595;28;20029;-66
2021/01/19 06:45:10;;;;;;;71.88;24.33;;;-9.20;99.90;;;;;;4188863;28;20545;-64
2021/01/19 06:47:18;;;;;;;77.65;26.98;;;-9.20;99.90;;;;;;4188564;28;20449;-64
2021/01/19 06:49:23;;;;;;;76.70;28.10;;;-9.20;99.90;;;;;;4188294;28;20484;-65
2021/01/19 06:51:24;;;;;;;92.22;31.30;;;-9.10;99.90;;;;;;4188553;28;20113;-65
2021/01/19 06:53:33;;;;;;;88.22;33.20;;;-9.10;99.90;;;;;;4189216;28;20029;-64
2021/01/19 06:55:57;;;;;;;105.55;35.78;;;-9.00;99.90;;;;;;4188060;28;20025;-67
2021/01/19 06:58:31;;;;;;;101.15;32.70;;;-9.00;99.90;;;;;;4177538;28;20048;-65
2021/01/19 07:00:38;;;;;;;90.63;31.35;;;-8.80;99.90;;;;;;4188678;28;20106;-65
2021/01/19 07:02:40;;;;;;;92.65;32.53;;;-8.70;99.90;;;;;;4188348;28;20412;-65
2021/01/19 07:04:47;;;;;;;87.85;31.58;;;-8.70;99.90;;;;;;4186643;28;20086;-65
2021/01/19 07:07:10;;;;;;;84.28;32.75;;;-8.80;99.90;;;;;;4189059;28;20029;-65
2021/01/19 07:09:48;;;;;;;101.53;34.72;;;-8.70;99.90;;;;;;4188389;28;20098;-66
2021/01/19 07:12:09;;;;;;;90.47;32.42;;;-8.60;99.90;;;;;;4188329;28;20036;-66
2021/01/19 07:14:11;;;;;;;;;;;-8.60;99.90;;;;;;4188893;28;20424;-66
2021/01/19 07:16:23;;;;;;;95.53;32.75;;;-8.60;99.90;;;;;;4188225;28;19913;-67
2021/01/19 07:18:42;;;;;;;100.13;35.90;;;-8.60;99.90;;;;;;4188254;28;20040;-65
2021/01/19 07:21:06;;;;;;;106.85;37.35;;;-8.60;99.90;;;;;;4188242;28;20427;-65
2021/01/19 07:23:28;;;;;;;117.22;38.90;;;-8.60;99.90;;;;;;4189254;28;20541;-67
2021/01/19 07:25:29;;;;;;;88.57;34.97;;;-8.50;99.90;;;;;;4187950;28;20094;-66
2021/01/19 07:27:32;;;;;;;94.53;35.80;;;-8.50;99.90;;;;;;4188737;28;20040;-66
2021/01/19 07:29:33;;;;;;;108.22;36.97;;;-8.50;99.90;;;;;;4187747;28;20082;-66
2021/01/19 07:31:35;;;;;;;90.80;34.45;;;-8.40;99.90;;;;;;4187671;28;20169;-66
2021/01/19 07:33:39;;;;;;;102.10;38.38;;;-8.20;99.90;;;;;;4187606;28;20036;-65
2021/01/19 07:35:41;;;;;;;94.97;35.38;;;-8.20;99.90;;;;;;4188870;28;20029;-67
2021/01/19 07:37:42;;;;;;;95.45;35.92;;;-8.10;99.90;;;;;;4187746;28;20727;-66
2021/01/19 07:39:43;;;;;;;99.40;35.25;;;-8.00;99.90;;;;;;4186225;28;20034;-66
2021/01/19 07:41:44;;;;;;;118.75;39.50;;;-7.80;99.90;;;;;;4188239;28;20086;-65
2021/01/19 07:43:45;;;;;;;84.72;33.45;;;-7.50;99.90;;;;;;4188109;28;20090;-66
2021/01/19 07:45:55;;;;;;;92.22;35.00;;;-7.30;99.90;;;;;;4188231;28;20481;-65
2021/01/19 07:48:07;;;;;;;84.15;33.80;;;-7.10;99.90;;;;;;4187562;28;20033;-66
2021/01/19 07:50:12;;;;;;;84.63;34.05;;;-6.80;99.90;;;;;;4187846;28;20102;-67
2021/01/19 07:52:14;;;;;;;90.93;34.20;;;-6.60;99.90;;;;;;4187612;28;20048;-66
2021/01/19 07:54:21;;;;;;;96.13;37.03;;;-6.40;99.90;;;;;;4187226;28;20533;-65
2021/01/19 07:56:28;;;;;;;96.90;35.63;;;-6.30;99.90;;;;;;4186998;28;20496;-66
2021/01/19 07:58:36;;;;;;;95.63;33.35;;;-6.20;99.90;;;;;;4188544;28;20082;-66
2021/01/19 08:00:38;;;;;;;91.68;36.75;;;-5.80;99.90;;;;;;4185713;28;20522;-66
2021/01/19 08:02:39;;;;;;;99.28;37.45;;;-5.80;99.90;;;;;;4188363;28;20032;-68
2021/01/19 08:04:40;;;;;;;95.88;35.33;;;-5.70;99.90;;;;;;4186651;28;20041;-67
2021/01/19 08:06:45;;;;;;;81.70;34.38;;;-5.80;99.90;;;;;;4188531;28;21002;-66
2021/01/19 08:08:47;;;;;;;77.80;32.88;;;-5.90;99.90;;;;;;4188941;28;20025;-66
2021/01/19 08:10:57;;;;;;;90.28;35.03;;;-5.90;99.90;;;;;;4191134;28;20058;-67
2021/01/19 08:12:59;;;;;;;97.47;38.53;;;-5.80;99.90;;;;;;4190305;28;20032;-65
2021/01/19 08:15:04;;;;;;;99.13;37.72;;;-5.80;99.90;;;;;;4189699;28;20137;-66
2021/01/19 08:17:06;;;;;;;95.95;38.78;;;-5.50;99.90;;;;;;4190595;28;20067;-66
2021/01/19 08:19:12;;;;;;;92.57;36.88;;;-5.40;99.90;;;;;;4191111;28;20036;-66
2021/01/19 08:21:13;;;;;;;93.68;37.60;;;-5.30;99.90;;;;;;4190288;28;20083;-64
2021/01/19 08:23:24;;;;;;;97.07;39.85;;;-5.10;99.90;;;;;;4190735;28;20094;-65
2021/01/19 08:25:27;;;;;;;;;;;-5.20;99.90;;;;;;4191000;28;21423;-64
2021/01/19 08:27:28;;;;;;;115.40;42.40;;;-5.30;99.90;;;;;;4190774;28;20437;-65
2021/01/19 08:29:30;;;;;;;111.00;44.70;;;-5.20;99.90;;;;;;4189867;28;20036;-66
2021/01/19 08:31:33;;;;;;;119.65;44.95;;;-5.20;99.90;;;;;;4205044;28;20545;-64
2021/01/19 08:33:39;;;;;;;119.35;47.88;;;-5.20;99.90;;;;;;4189797;28;20074;-66
2021/01/19 08:35:40;;;;;;;106.20;42.17;;;-5.20;99.90;;;;;;4190661;28;20070;-65
2021/01/19 08:37:42;;;;;;;95.85;38.33;;;-5.30;99.90;;;;;;4191066;28;20095;-65
2021/01/19 08:39:53;;;;;;;94.40;38.45;;;-5.40;99.90;;;;;;4190252;28;20077;-66
2021/01/19 08:41:55;;;;;;;97.95;40.45;;;-5.40;99.90;;;;;;4191063;28;20040;-66
2021/01/19 08:44:02;;;;;;;97.55;39.60;;;-5.20;99.90;;;;;;4189888;28;20439;-66
2021/01/19 08:46:12;;;;;;;114.05;40.45;;;-5.00;99.90;;;;;;4190684;28;20142;-65
2021/01/19 08:48:14;;;;;;;101.20;37.25;;;-4.80;99.90;;;;;;4189659;28;20021;-67
2021/01/19 08:50:16;;;;;;;100.90;36.97;;;-5.00;99.90;;;;;;4189283;28;20044;-66
2021/01/19 08:52:25;;;;;;;95.38;38.10;;;-5.30;99.90;;;;;;4189984;28;20118;-65
2021/01/19 08:54:31;;;;;;;97.38;36.40;;;-5.50;99.90;;;;;;4190901;28;20807;-66
2021/01/19 08:56:32;;;;;;;107.43;38.13;;;-5.60;99.90;;;;;;4189763;28;20036;-65
2021/01/19 08:58:33;;;;;;;111.22;37.80;;;-5.70;99.90;;;;;;4191215;28;20174;-66
2021/01/19 09:00:36;;;;;;;88.43;35.22;;;-5.80;99.90;;;;;;4189128;28;20028;-66
2021/01/19 09:02:38;;;;;;;94.38;34.30;;;-6.10;99.90;;;;;;4188988;28;20447;-67
2021/01/19 09:04:40;;;;;;;88.72;35.95;;;-6.30;99.90;;;;;;4190076;28;20073;-67
2021/01/19 09:06:41;;;;;;;91.55;34.78;;;-6.40;99.90;;;;;;4191040;28;20029;-66
2021/01/19 09:08:43;;;;;;;97.80;38.08;;;-6.50;99.90;;;;;;4189893;28;20485;-66
2021/01/19 09:10:45;;;;;;;92.32;35.40;;;-6.50;99.90;;;;;;4190402;28;20538;-67
2021/01/19 09:12:47;;;;;;;91.15;37.20;;;-6.50;99.90;;;;;;4189942;28;20485;-65
2021/01/19 09:14:52;;;;;;;93.65;35.05;;;-6.50;99.90;;;;;;4190171;28;20466;-65
2021/01/19 09:16:55;;;;;;;96.35;37.25;;;-6.50;99.90;;;;;;4190155;28;20545;-65
2021/01/19 09:18:59;;;;;;;97.05;38.20;;;-6.50;99.90;;;;;;4187965;28;20052;-67
2021/01/19 09:21:15;;;;;;;92.60;35.47;;;-6.40;99.90;;;;;;4189062;28;20029;-65
2021/01/19 09:23:17;;;;;;;88.05;33.83;;;-6.30;99.90;;;;;;4189902;28;20036;-66
2021/01/19 09:25:20;;;;;;;89.40;33.67;;;-6.40;99.90;;;;;;4190131;28;20070;-67
2021/01/19 09:27:21;;;;;;;85.25;33.25;;;-6.40;99.90;;;;;;4189362;28;20094;-68
2021/01/19 09:29:26;;;;;;;79.32;31.20;;;-6.40;99.90;;;;;;4190259;28;20530;-65
2021/01/19 09:31:28;;;;;;;83.78;29.85;;;-6.40;99.90;;;;;;4189448;28;20114;-65
2021/01/19 09:33:32;;;;;;;81.43;30.67;;;-6.30;99.90;;;;;;4190219;28;20435;-67
2021/01/19 09:35:34;;;;;;;88.80;31.13;;;-6.20;99.90;;;;;;4189074;28;20078;-66
2021/01/19 09:37:36;;;;;;;85.93;32.47;;;-6.20;99.90;;;;;;4190918;28;20028;-65
2021/01/19 09:39:37;;;;;;;77.38;30.65;;;-6.10;99.90;;;;;;4188752;28;20049;-66
2021/01/19 09:41:42;;;;;;;78.03;31.42;;;-5.90;99.90;;;;;;4190187;28;20040;-66
2021/01/19 09:43:50;;;;;;;79.38;29.35;;;-5.90;99.90;;;;;;4188968;28;20055;-68
2021/01/19 09:45:56;;;;;;;70.10;25.25;;;-5.70;99.90;;;;;;4189334;28;20451;-68
2021/01/19 09:47:57;;;;;;;67.78;25.33;;;-5.50;99.90;;;;;;4188978;28;20358;-65
2021/01/19 09:49:59;;;;;;;58.45;23.25;;;-5.50;99.90;;;;;;4189231;28;20041;-66
2021/01/19 09:52:10;;;;;;;60.53;22.83;;;-5.50;99.90;;;;;;4189151;28;20072;-66
2021/01/19 09:54:12;;;;;;;66.35;24.08;;;-5.50;99.90;;;;;;4189776;28;20106;-66
2021/01/19 09:56:16;;;;;;;69.75;26.80;;;-5.50;99.90;;;;;;4188635;28;20063;-66
2021/01/19 09:58:22;;;;;;;65.40;27.40;;;-5.50;99.90;;;;;;4189296;28;21077;-66
2021/01/19 10:00:32;;;;;;;60.83;23.08;;;-5.50;99.90;;;;;;4188708;28;20040;-68
2021/01/19 10:02:33;;;;;;;61.25;23.20;;;-5.40;99.90;;;;;;4189097;28;20605;-65
2021/01/19 10:04:34;;;;;;;69.38;25.48;;;-5.30;99.90;;;;;;4186895;28;20036;-66
2021/01/19 10:06:35;;;;;;;58.80;21.77;;;-5.40;99.90;;;;;;4189502;28;20040;-68
2021/01/19 10:08:38;;;;;;;51.75;21.30;;;-5.40;99.90;;;;;;4188705;28;20571;-66
2021/01/19 10:10:42;;;;;;;55.30;22.05;;;-5.50;99.90;;;;;;4188597;28;20410;-67
2021/01/19 10:12:43;;;;;;;57.97;22.60;;;-5.50;99.90;;;;;;4187572;28;20053;-68
2021/01/19 10:14:44;;;;;;;57.35;20.05;;;-5.70;99.90;;;;;;4188415;28;20028;-66
2021/01/19 10:16:53;;;;;;;61.60;23.48;;;-5.70;99.90;;;;;;4189154;28;20517;-66
2021/01/19 10:18:54;;;;;;;59.35;22.98;;;-5.80;99.90;;;;;;4188461;28;20181;-68
2021/01/19 10:20:55;;;;;;;59.92;21.65;;;-5.80;99.90;;;;;;4187602;28;20032;-66
2021/01/19 10:22:58;;;;;;;57.10;20.88;;;-5.80;99.90;;;;;;4187869;28;20557;-66
2021/01/19 10:24:59;;;;;;;52.78;21.30;;;-5.80;99.90;;;;;;4187890;28;20044;-67
2021/01/19 10:27:09;;;;;;;60.70;21.98;;;-5.80;99.90;;;;;;4188118;28;20086;-67
2021/01/19 10:29:11;;;;;;;54.58;22.30;;;-5.80;99.90;;;;;;4186671;28;20470;-66
2021/01/19 10:31:22;;;;;;;63.80;23.85;;;-5.80;99.90;;;;;;4187440;28;20110;-68